Bainville, Montana
Current Conditions -  °F | °C
As of 8:52 PM on Tuesday 21 Oct 2014 (Local Time) from KISN Reporting Station
Clear Clear  
Wind Chill: 46°   Ceiling: Unl
Heat Index: 46°   Visibility: 9mi
Dew Point: 40°   Wind: 0mph
Humidity: 79%   Direction: NA
Pressure: 29.58"   Gusts: NA
Location:  48.14°N, 104.22°W
Report Text: KISN 220252Z AUTO 00000KT 9SM CLR 08/04 A2958 RMK AO2 SLP024 T00780044 51006
Loading
Personal Weather Stations






























Interactive Weather Map
Tropical Storm Tracking
New forecast layout! Learn more

10-Day Weather Forecast

Advertisements
Track Severe Weather on mobile